Time;durP1;ratioP1;P1;durP2;ratioP2;P2;SDS_P1;SDS_P2;PMS_P1;PMS_P2;Temp;Humidity;BMP_temperature;BMP_pressure;BME280_temperature;BME280_humidity;BME280_pressure;Samples;Min_cycle;Max_cycle;Signal;HPM_P1;HPM_P2
2022/12/13 00:01:28;;;;;;;84.82;28.75;;;-5.70;1.00;;;;;;5109356;28;20043;-79
2022/12/13 00:03:56;;;;;;;86.35;31.17;;;-5.70;1.00;;;;;;5111228;27;20050;-76
2022/12/13 00:06:22;;;;;;;84.05;28.77;;;-5.70;1.00;;;;;;5074782;28;20062;-77
2022/12/13 00:08:48;;;;;;;73.97;28.33;;;-5.70;1.00;;;;;;5084399;28;20401;-77
2022/12/13 00:11:14;;;;;;;78.15;29.92;;;-5.80;1.00;;;;;;5110250;27;20048;-77
2022/12/13 00:13:41;;;;;;;82.70;30.50;;;-5.70;1.00;;;;;;5082218;28;20052;-77
2022/12/13 00:16:11;;;;;;;89.43;32.00;;;-5.70;1.00;;;;;;5079904;28;20112;-77
2022/12/13 00:18:37;;;;;;;82.88;30.33;;;-5.70;1.00;;;;;;5081628;28;20047;-78
2022/12/13 00:21:14;;;;;;;93.05;30.75;;;-5.70;1.00;;;;;;5094216;27;20081;-77
2022/12/13 00:23:39;;;;;;;80.22;29.52;;;-5.60;1.00;;;;;;5109566;28;20036;-76
2022/12/13 00:26:09;;;;;;;78.95;30.67;;;-5.60;1.00;;;;;;5113097;27;20035;-77
2022/12/13 00:28:36;;;;;;;83.70;29.60;;;-5.60;1.00;;;;;;5107571;27;20050;-76
2022/12/13 00:31:02;;;;;;;83.03;29.98;;;-5.60;1.00;;;;;;5109624;28;20043;-78
2022/12/13 00:33:28;;;;;;;84.97;30.42;;;-5.50;1.00;;;;;;5075596;28;20035;-77
2022/12/13 00:35:55;;;;;;;85.95;32.05;;;-5.50;1.00;;;;;;5074795;28;20039;-78
2022/12/13 00:38:22;;;;;;;83.50;30.58;;;-5.50;1.00;;;;;;5109595;28;20131;-77
2022/12/13 00:40:47;;;;;;;77.28;29.77;;;-5.50;1.00;;;;;;5085340;28;20059;-77
2022/12/13 00:43:13;;;;;;;78.93;30.17;;;-5.50;1.00;;;;;;5072558;28;20048;-82
2022/12/13 00:45:39;;;;;;;81.25;30.02;;;-5.60;1.00;;;;;;5068610;28;20089;-77
2022/12/13 00:48:06;;;;;;;80.97;30.58;;;-5.60;1.00;;;;;;5110329;27;20035;-77
2022/12/13 00:50:32;;;;;;;80.43;30.70;;;-5.60;1.00;;;;;;5073905;28;20079;-81
2022/12/13 00:53:01;;;;;;;76.95;30.40;;;-5.60;1.00;;;;;;5110844;27;20043;-77
2022/12/13 00:55:27;;;;;;;80.85;29.38;;;-5.70;1.00;;;;;;5108119;27;20044;-78
2022/12/13 00:57:53;;;;;;;76.78;28.73;;;-5.70;1.00;;;;;;5109857;28;20058;-77
2022/12/13 01:00:19;;;;;;;77.28;30.10;;;-5.70;1.00;;;;;;5080599;28;20100;-77
2022/12/13 01:02:45;;;;;;;83.93;29.58;;;-5.60;1.00;;;;;;5119052;27;20096;-77
2022/12/13 01:05:11;;;;;;;72.88;28.52;;;-5.60;1.00;;;;;;5110685;28;20050;-79
2022/12/13 01:07:38;;;;;;;78.47;27.95;;;-5.60;1.00;;;;;;5105899;28;20092;-78
2022/12/13 01:10:06;;;;;;;72.05;28.85;;;-5.70;1.00;;;;;;5084435;28;20489;-77
2022/12/13 01:12:35;;;;;;;77.32;27.75;;;-5.70;1.00;;;;;;5074911;28;20508;-79
2022/12/13 01:15:01;;;;;;;76.95;29.13;;;-5.70;1.00;;;;;;5122424;27;20044;-77
2022/12/13 01:17:26;;;;;;;74.72;29.23;;;-5.70;1.00;;;;;;5090848;28;20378;-78
2022/12/13 01:19:52;;;;;;;72.28;28.20;;;-5.60;1.00;;;;;;5089321;28;20118;-77
2022/12/13 01:22:18;;;;;;;81.20;29.10;;;-5.60;1.00;;;;;;5107961;28;20035;-83
2022/12/13 01:24:44;;;;;;;76.32;29.40;;;-5.60;1.00;;;;;;5108278;28;20052;-77
2022/12/13 01:27:09;;;;;;;76.45;30.35;;;-5.50;1.00;;;;;;5091577;28;20043;-77
2022/12/13 01:29:35;;;;;;;81.47;29.45;;;-5.50;1.00;;;;;;5086869;28;20043;-77
2022/12/13 01:32:01;;;;;;;71.15;29.52;;;-5.50;1.00;;;;;;5108070;28;20051;-77
2022/12/13 01:34:26;;;;;;;73.45;28.52;;;-5.50;1.00;;;;;;5084268;28;20047;-79
2022/12/13 01:36:53;;;;;;;73.13;28.38;;;-5.60;1.00;;;;;;5091505;28;20043;-77
2022/12/13 01:39:19;;;;;;;68.88;28.27;;;-5.70;1.00;;;;;;5089220;28;20378;-77
2022/12/13 01:41:55;;;;;;;73.45;28.25;;;-5.70;1.00;;;;;;5071342;28;20050;-77
2022/12/13 01:45:09;;;;;;;74.32;29.55;;;-5.70;1.00;;;;;;5103701;28;20052;-77
2022/12/13 01:47:40;;;;;;;70.07;27.98;;;-5.70;1.00;;;;;;5094469;28;20134;-77
2022/12/13 01:50:19;;;;;;;75.22;28.40;;;-5.70;1.00;;;;;;5092246;28;20496;-79
2022/12/13 01:52:45;;;;;;;68.95;29.63;;;-5.80;1.00;;;;;;5088616;28;20048;-77
2022/12/13 01:55:12;;;;;;;72.72;28.63;;;-5.80;1.00;;;;;;5079536;28;20048;-80
2022/12/13 01:57:41;;;;;;;74.28;28.90;;;-5.80;1.00;;;;;;5070178;28;20051;-77
2022/12/13 02:00:08;;;;;;;81.20;29.42;;;-5.80;1.00;;;;;;5087729;28;20177;-77
2022/12/13 02:02:34;;;;;;;72.18;28.48;;;-5.80;1.00;;;;;;5069734;28;20085;-77
2022/12/13 02:05:27;;;;;;;70.65;28.38;;;-5.80;1.00;;;;;;5075073;28;20047;-77
2022/12/13 02:07:56;;;;;;;72.80;27.17;;;-5.80;1.00;;;;;;5071311;28;20093;-77
2022/12/13 02:10:22;;;;;;;75.78;29.25;;;-5.80;1.00;;;;;;5070735;28;20145;-79
2022/12/13 02:12:47;;;;;;;79.70;29.58;;;-5.80;1.00;;;;;;5071273;28;20146;-77
2022/12/13 02:15:16;;;;;;;72.65;28.50;;;-5.80;1.00;;;;;;5070262;28;20166;-77
2022/12/13 02:17:51;;;;;;;82.32;30.77;;;-5.70;1.00;;;;;;5089952;28;20113;-78
2022/12/13 02:20:50;;;;;;;81.68;29.58;;;-5.70;1.00;;;;;;5071258;28;20044;-79
2022/12/13 02:23:44;;;;;;;70.90;28.60;;;-5.70;1.00;;;;;;5072798;28;20035;-77
2022/12/13 02:26:19;;;;;;;73.07;27.30;;;-5.70;1.00;;;;;;5086552;28;20048;-80
2022/12/13 02:29:16;;;;;;;77.60;27.27;;;-5.70;1.00;;;;;;5069493;28;20052;-76
2022/12/13 02:31:55;;;;;;;72.57;27.17;;;-5.80;1.00;;;;;;5052682;28;20048;-77
2022/12/13 02:34:27;;;;;;;74.40;27.92;;;-5.80;1.00;;;;;;5069721;28;20120;-80
2022/12/13 02:36:59;;;;;;;72.55;26.10;;;-5.90;1.00;;;;;;5084559;28;20169;-77
2022/12/13 02:39:33;;;;;;;67.13;27.50;;;-5.90;1.00;;;;;;5088244;28;20051;-77
2022/12/13 02:42:07;;;;;;;63.28;24.63;;;-6.00;1.00;;;;;;5068070;28;20036;-77
2022/12/13 02:44:50;;;;;;;80.82;27.05;;;-6.10;1.00;;;;;;5056181;28;20131;-78
2022/12/13 02:47:28;;;;;;;70.68;25.98;;;-6.10;1.00;;;;;;5065027;28;20123;-80
2022/12/13 02:49:58;;;;;;;67.72;26.17;;;-6.10;1.00;;;;;;5059455;28;20056;-81
2022/12/13 02:52:27;;;;;;;65.88;26.73;;;-6.10;1.00;;;;;;5070974;28;20050;-77
2022/12/13 02:54:56;;;;;;;67.32;26.58;;;-6.20;1.00;;;;;;5084624;28;20200;-80
2022/12/13 02:57:33;;;;;;;65.95;25.85;;;-6.20;1.00;;;;;;5078003;28;20049;-79
2022/12/13 03:00:20;;;;;;;64.55;25.73;;;-6.20;1.00;;;;;;5091976;28;20052;-77
2022/12/13 03:03:04;;;;;;;69.07;25.67;;;-6.30;1.00;;;;;;5087170;28;20101;-77
2022/12/13 03:09:06;;;;;;;63.25;25.20;;;-6.30;1.00;;;;;;5086680;28;20059;-76
2022/12/13 03:14:57;;;;;;;66.13;25.92;;;-6.30;1.00;;;;;;5079908;28;20142;-77
2022/12/13 03:17:25;;;;;;;66.70;26.23;;;-6.30;1.00;;;;;;5114752;28;20056;-77
2022/12/13 03:19:52;;;;;;;63.40;25.27;;;-6.30;1.00;;;;;;5098772;28;20040;-77
2022/12/13 03:22:18;;;;;;;65.45;26.10;;;-6.20;1.00;;;;;;5071126;28;20446;-81
2022/12/13 03:24:44;;;;;;;62.30;24.42;;;-6.20;1.00;;;;;;5092218;28;20044;-77
2022/12/13 03:27:12;;;;;;;65.25;26.48;;;-6.20;1.00;;;;;;5070869;28;20044;-77
2022/12/13 03:29:38;;;;;;;62.65;25.35;;;-6.20;1.00;;;;;;5055907;28;20055;-83
2022/12/13 03:32:04;;;;;;;66.60;27.15;;;-6.20;1.00;;;;;;5066824;28;20042;-76
2022/12/13 03:34:29;;;;;;;64.00;28.20;;;-6.30;1.00;;;;;;5063966;28;20093;-77
2022/12/13 03:36:55;;;;;;;66.30;26.55;;;-6.20;1.00;;;;;;5068323;28;20068;-77
2022/12/13 03:39:21;;;;;;;62.58;25.88;;;-6.30;1.00;;;;;;5066961;28;20048;-76
2022/12/13 03:41:48;;;;;;;67.80;26.65;;;-6.30;1.00;;;;;;5088877;28;20044;-77
2022/12/13 03:44:14;;;;;;;62.63;25.75;;;-6.30;1.00;;;;;;5073460;28;20135;-77
2022/12/13 03:46:40;;;;;;;66.65;26.75;;;-6.30;1.00;;;;;;5074302;28;20123;-83
2022/12/13 03:49:05;;;;;;;73.32;27.60;;;-6.20;1.00;;;;;;5073106;28;20048;-79
2022/12/13 03:51:31;;;;;;;69.05;28.20;;;-6.30;1.00;;;;;;5054300;28;20490;-78
2022/12/13 03:53:57;;;;;;;69.38;26.83;;;-6.30;1.00;;;;;;5083992;27;20039;-77
2022/12/13 03:56:22;;;;;;;65.78;25.35;;;-6.30;1.00;;;;;;5112953;27;20086;-77
2022/12/13 03:58:48;;;;;;;64.88;25.60;;;-6.40;1.00;;;;;;5088317;28;20043;-77
2022/12/13 04:01:15;;;;;;;64.10;25.05;;;-6.40;1.00;;;;;;5094659;27;20484;-76
2022/12/13 04:03:42;;;;;;;59.55;24.48;;;-6.40;1.00;;;;;;5116323;27;20064;-77
2022/12/13 04:06:09;;;;;;;61.17;24.38;;;-6.40;1.00;;;;;;5098381;27;20130;-77
2022/12/13 04:08:36;;;;;;;61.58;24.85;;;-6.40;1.00;;;;;;5079339;27;20087;-77
2022/12/13 04:13:46;;;;;;;63.08;25.27;;;-6.50;1.00;;;;;;5111814;27;20057;-79
2022/12/13 04:16:12;;;;;;;58.25;24.35;;;-6.50;1.00;;;;;;5096444;27;20039;-79
2022/12/13 04:18:38;;;;;;;63.63;24.40;;;-6.50;1.00;;;;;;5114926;27;20129;-77
2022/12/13 04:21:03;;;;;;;68.22;25.08;;;-6.50;1.00;;;;;;5094248;28;20094;-77
2022/12/13 04:23:29;;;;;;;69.15;26.83;;;-6.50;1.00;;;;;;5107342;27;20066;-77
2022/12/13 04:25:55;;;;;;;65.32;24.92;;;-6.50;1.00;;;;;;5093882;27;20121;-77
2022/12/13 04:28:20;;;;;;;62.28;26.88;;;-6.50;1.00;;;;;;5086469;27;20301;-76
2022/12/13 04:30:46;;;;;;;63.75;25.88;;;-6.50;1.00;;;;;;5113269;27;20055;-82
2022/12/13 04:33:11;;;;;;;65.05;26.00;;;-6.50;1.00;;;;;;5112672;27;20047;-77
2022/12/13 04:35:37;;;;;;;62.83;26.63;;;-6.50;1.00;;;;;;5097108;27;20100;-77
2022/12/13 04:38:03;;;;;;;60.75;25.15;;;-6.50;1.00;;;;;;5111598;27;20129;-76
2022/12/13 04:40:28;;;;;;;62.90;25.33;;;-6.50;1.00;;;;;;5075989;27;20073;-77
2022/12/13 04:42:54;;;;;;;61.40;25.80;;;-6.50;1.00;;;;;;5091608;27;20031;-77
2022/12/13 04:45:21;;;;;;;66.18;26.40;;;-6.50;1.00;;;;;;5085687;27;20045;-79
2022/12/13 04:47:47;;;;;;;66.70;26.70;;;-6.50;1.00;;;;;;5114603;27;20066;-77
2022/12/13 04:50:12;;;;;;;63.30;26.27;;;-6.60;1.00;;;;;;5095568;27;20059;-77
2022/12/13 04:52:39;;;;;;;60.00;25.23;;;-6.50;1.00;;;;;;5113847;27;20561;-77
2022/12/13 04:55:07;;;;;;;62.35;26.48;;;-6.50;1.00;;;;;;5113930;27;20079;-76
2022/12/13 04:57:34;;;;;;;62.85;25.30;;;-6.50;1.00;;;;;;5112978;27;20042;-75
2022/12/13 04:59:59;;;;;;;65.47;26.83;;;-6.50;1.00;;;;;;5093583;27;20392;-75
2022/12/13 05:02:25;;;;;;;64.97;26.98;;;-6.50;1.00;;;;;;5116772;27;20035;-77
2022/12/13 05:04:51;;;;;;;63.40;25.77;;;-6.50;1.00;;;;;;5092789;27;20720;-82
2022/12/13 05:07:17;;;;;;;67.18;25.80;;;-6.50;1.00;;;;;;5062688;28;20054;-77
2022/12/13 05:09:42;;;;;;;61.33;26.85;;;-6.50;1.00;;;;;;5090390;27;20043;-76
2022/12/13 05:12:08;;;;;;;66.85;27.05;;;-6.50;1.00;;;;;;5096841;27;20575;-76
2022/12/13 05:14:34;;;;;;;66.13;28.17;;;-6.50;1.00;;;;;;5096130;27;20515;-76
2022/12/13 05:17:00;;;;;;;68.97;26.42;;;-6.50;1.00;;;;;;5099670;27;20112;-75
2022/12/13 05:19:26;;;;;;;66.80;26.48;;;-6.50;1.00;;;;;;5112025;27;20043;-78
2022/12/13 05:21:52;;;;;;;69.28;25.92;;;-6.60;1.00;;;;;;5112929;27;20396;-75
2022/12/13 05:24:18;;;;;;;66.65;26.95;;;-6.60;1.00;;;;;;5073957;28;20073;-79
2022/12/13 05:26:43;;;;;;;61.55;27.02;;;-6.60;1.00;;;;;;5096270;27;20072;-75
2022/12/13 05:29:09;;;;;;;64.05;26.75;;;-6.60;1.00;;;;;;5086941;27;20445;-75
2022/12/13 05:31:35;;;;;;;60.80;26.02;;;-6.60;1.00;;;;;;5073094;28;20035;-76
2022/12/13 05:34:01;;;;;;;70.45;26.90;;;-6.60;1.00;;;;;;5092301;27;20079;-76
2022/12/13 05:36:27;;;;;;;66.70;26.80;;;-6.60;1.00;;;;;;5095095;27;20133;-77
2022/12/13 05:38:52;;;;;;;67.55;26.38;;;-6.60;1.00;;;;;;5112211;27;20039;-76
2022/12/13 05:41:22;;;;;;;62.10;25.58;;;-6.60;1.00;;;;;;5109703;27;20039;-78
2022/12/13 05:43:47;;;;;;;69.55;28.90;;;-6.60;1.00;;;;;;5111954;27;20043;-77
2022/12/13 05:46:13;;;;;;;65.45;28.35;;;-6.60;1.00;;;;;;5080122;28;20052;-77
2022/12/13 05:48:39;;;;;;;66.28;26.55;;;-6.60;1.00;;;;;;5089501;27;20047;-77
2022/12/13 05:51:06;;;;;;;68.63;27.17;;;-6.60;1.00;;;;;;5115555;27;20077;-76
2022/12/13 05:53:31;;;;;;;68.07;27.63;;;-6.60;1.00;;;;;;5095384;27;20496;-77
2022/12/13 05:56:01;;;;;;;69.78;26.95;;;-6.60;1.00;;;;;;5110866;27;20130;-78
2022/12/13 05:58:27;;;;;;;61.95;26.08;;;-6.50;1.00;;;;;;5107361;27;20767;-77
2022/12/13 06:00:53;;;;;;;59.03;26.08;;;-6.60;1.00;;;;;;5080296;27;20066;-76
2022/12/13 06:03:19;;;;;;;60.53;26.95;;;-6.60;1.00;;;;;;5075503;28;20115;-76
2022/12/13 06:05:44;;;;;;;65.47;27.00;;;-6.60;1.00;;;;;;5095233;27;20134;-77
2022/12/13 06:08:10;;;;;;;65.85;27.85;;;-6.50;1.00;;;;;;5084712;28;20126;-76
2022/12/13 06:10:37;;;;;;;69.63;28.30;;;-6.60;1.00;;;;;;5104766;27;20175;-78
2022/12/13 06:13:03;;;;;;;73.88;29.10;;;-6.60;1.00;;;;;;5085688;27;20096;-81
2022/12/13 06:15:30;;;;;;;69.88;28.35;;;-6.50;1.00;;;;;;5084240;27;20047;-81
2022/12/13 06:17:58;;;;;;;68.10;29.08;;;-6.50;1.00;;;;;;5076652;27;20047;-82
2022/12/13 06:20:25;;;;;;;63.53;26.45;;;-6.50;1.00;;;;;;5093120;27;20039;-80
2022/12/13 06:22:53;;;;;;;67.93;28.08;;;-6.50;1.00;;;;;;5085438;28;20398;-80
2022/12/13 06:25:20;;;;;;;70.20;28.60;;;-6.50;1.00;;;;;;5075661;28;20042;-79
2022/12/13 06:27:45;;;;;;;70.32;29.40;;;-6.50;1.00;;;;;;5093477;27;20043;-79
2022/12/13 06:30:11;;;;;;;69.75;28.58;;;-6.50;1.00;;;;;;5110535;28;20104;-80
2022/12/13 06:32:37;;;;;;;68.47;27.00;;;-6.50;1.00;;;;;;5094687;27;20484;-80
2022/12/13 06:35:04;;;;;;;75.22;28.10;;;-6.50;1.00;;;;;;5112626;28;20158;-80
2022/12/13 06:37:29;;;;;;;72.53;28.85;;;-6.50;1.00;;;;;;5060770;28;20055;-80
2022/12/13 06:39:55;;;;;;;66.60;28.50;;;-6.50;1.00;;;;;;5094963;28;20096;-80
2022/12/13 06:42:21;;;;;;;68.75;29.17;;;-6.50;1.00;;;;;;5088033;27;20047;-79
2022/12/13 06:44:50;;;;;;;76.53;29.95;;;-6.50;1.00;;;;;;5098850;27;20043;-83
2022/12/13 06:47:16;;;;;;;75.65;30.38;;;-6.50;1.00;;;;;;5080229;27;20107;-81
2022/12/13 06:49:42;;;;;;;76.75;29.42;;;-6.40;1.00;;;;;;5095865;28;20500;-78
2022/12/13 06:52:10;;;;;;;84.60;31.83;;;-6.40;1.00;;;;;;5106848;27;20062;-82
2022/12/13 06:54:36;;;;;;;75.35;30.50;;;-6.30;1.00;;;;;;5102720;28;20126;-79
2022/12/13 06:57:02;;;;;;;76.97;31.05;;;-6.30;1.00;;;;;;5105645;28;20168;-80
2022/12/13 06:59:27;;;;;;;78.88;32.03;;;-6.30;1.00;;;;;;5090993;28;20400;-80
2022/12/13 07:01:53;;;;;;;76.93;30.67;;;-6.40;1.00;;;;;;5074288;28;20032;-78
2022/12/13 07:04:18;;;;;;;81.00;33.08;;;-6.30;1.00;;;;;;5047710;28;20058;-78
2022/12/13 07:06:44;;;;;;;73.40;33.03;;;-6.30;1.00;;;;;;5051891;28;20059;-78
2022/12/13 07:09:10;;;;;;;83.30;33.38;;;-6.30;1.00;;;;;;5081818;28;20126;-81
2022/12/13 07:11:35;;;;;;;79.80;34.65;;;-6.30;1.00;;;;;;5090921;28;20044;-78
2022/12/13 07:14:01;;;;;;;84.93;31.85;;;-6.40;1.00;;;;;;5074960;28;20485;-79
2022/12/13 07:16:27;;;;;;;73.60;30.98;;;-6.40;1.00;;;;;;5108951;28;20547;-82
2022/12/13 07:18:54;;;;;;;70.20;29.90;;;-6.40;1.00;;;;;;5095286;28;20070;-78
2022/12/13 07:21:20;;;;;;;78.60;31.08;;;-6.40;1.00;;;;;;5092900;28;20496;-78
2022/12/13 07:23:45;;;;;;;76.45;31.17;;;-6.40;1.00;;;;;;5078579;28;20043;-78
2022/12/13 07:26:11;;;;;;;76.85;30.90;;;-6.40;1.00;;;;;;5111461;28;20063;-81
2022/12/13 07:28:37;;;;;;;85.30;32.80;;;-6.40;1.00;;;;;;5094874;28;20047;-79
2022/12/13 07:31:06;;;;;;;80.40;30.75;;;-6.40;1.00;;;;;;5112196;28;20477;-78
2022/12/13 07:33:32;;;;;;;77.90;31.67;;;-6.40;1.00;;;;;;5111296;28;20106;-79
2022/12/13 07:36:13;;;;;;;78.88;30.95;;;-6.30;1.00;;;;;;5093399;28;20044;-78
2022/12/13 07:38:39;;;;;;;74.28;30.92;;;-6.30;1.00;;;;;;5094612;28;20065;-78
2022/12/13 07:41:05;;;;;;;78.60;30.15;;;-6.30;1.00;;;;;;5088791;28;20434;-78
2022/12/13 07:43:32;;;;;;;81.13;30.77;;;-6.30;1.00;;;;;;5103178;28;20054;-79
2022/12/13 07:45:59;;;;;;;80.75;33.35;;;-6.30;1.00;;;;;;5077609;28;20048;-79
2022/12/13 07:48:25;;;;;;;75.90;30.48;;;-6.30;1.00;;;;;;5111057;28;20545;-78
2022/12/13 07:50:52;;;;;;;84.32;31.90;;;-6.40;1.00;;;;;;5087580;28;20048;-79
2022/12/13 07:53:17;;;;;;;84.88;32.53;;;-6.40;1.00;;;;;;5070733;28;20404;-81
2022/12/13 07:55:43;;;;;;;79.18;31.33;;;-6.40;1.00;;;;;;5070273;28;20051;-78
2022/12/13 07:58:11;;;;;;;84.40;32.15;;;-6.40;1.00;;;;;;5070370;28;20051;-78
2022/12/13 08:00:38;;;;;;;81.30;31.48;;;-6.40;1.00;;;;;;5074030;28;20036;-79
2022/12/13 08:03:04;;;;;;;80.00;30.30;;;-6.40;1.00;;;;;;5074214;28;20044;-78
2022/12/13 08:05:30;;;;;;;75.20;31.20;;;-6.30;1.00;;;;;;5093519;28;20131;-78
2022/12/13 08:07:56;;;;;;;82.35;32.92;;;-6.20;1.00;;;;;;5075359;28;20705;-79
2022/12/13 08:10:22;;;;;;;86.93;35.08;;;-6.20;1.00;;;;;;5090588;28;20040;-79
2022/12/13 08:12:48;;;;;;;89.63;34.35;;;-6.20;1.00;;;;;;5073781;28;20126;-79
2022/12/13 08:15:15;;;;;;;81.25;31.77;;;-6.20;1.00;;;;;;5087725;28;20052;-79
2022/12/13 08:17:41;;;;;;;86.38;34.83;;;-6.20;1.00;;;;;;5077975;28;20109;-78
2022/12/13 08:20:07;;;;;;;85.00;34.30;;;-6.10;1.00;;;;;;5073505;28;20052;-79
2022/12/13 08:22:33;;;;;;;84.90;32.63;;;-6.10;1.00;;;;;;5092555;28;20433;-79
2022/12/13 08:24:58;;;;;;;81.80;33.03;;;-6.00;1.00;;;;;;5085519;28;20139;-79
2022/12/13 08:27:24;;;;;;;80.30;32.38;;;-6.00;1.00;;;;;;5074568;28;20393;-78
2022/12/13 08:29:50;;;;;;;86.20;32.47;;;-5.90;1.00;;;;;;5059958;28;20040;-79
2022/12/13 08:32:16;;;;;;;88.15;30.77;;;-5.90;1.00;;;;;;5075327;28;20068;-78
2022/12/13 08:34:44;;;;;;;93.70;33.15;;;-5.90;1.00;;;;;;5059737;28;20214;-79
2022/12/13 08:37:10;;;;;;;86.30;32.55;;;-5.80;1.00;;;;;;5073483;28;20040;-78
2022/12/13 08:39:37;;;;;;;88.60;32.88;;;-5.70;1.00;;;;;;5055040;28;20047;-78
2022/12/13 08:42:12;;;;;;;89.50;33.80;;;-5.70;1.00;;;;;;5061130;28;20104;-78
2022/12/13 08:44:38;;;;;;;88.83;32.37;;;-5.60;1.00;;;;;;5094893;28;20047;-79
2022/12/13 08:47:04;;;;;;;79.32;31.92;;;-5.60;1.00;;;;;;5106412;28;20047;-78
2022/12/13 08:49:30;;;;;;;91.03;33.40;;;-5.40;1.00;;;;;;5072071;28;20075;-78
2022/12/13 08:51:55;;;;;;;89.00;36.17;;;-5.30;1.00;;;;;;5089597;28;20082;-78
2022/12/13 08:54:21;;;;;;;91.18;34.70;;;-5.20;1.00;;;;;;5054044;28;20061;-78
2022/12/13 08:56:47;;;;;;;90.60;34.22;;;-5.10;1.00;;;;;;5067307;28;20083;-79
2022/12/13 08:59:13;;;;;;;82.55;34.25;;;-5.00;1.00;;;;;;5072283;28;20538;-78
2022/12/13 09:01:41;;;;;;;100.35;36.95;;;-4.90;1.00;;;;;;5088927;28;20413;-78
2022/12/13 09:04:07;;;;;;;92.60;35.47;;;-4.90;1.00;;;;;;5073046;28;20485;-79
2022/12/13 09:06:32;;;;;;;96.35;36.53;;;-4.80;1.00;;;;;;5054560;28;20131;-78
2022/12/13 09:08:58;;;;;;;105.68;38.60;;;-4.60;1.00;;;;;;5089400;28;20040;-81
2022/12/13 09:11:24;;;;;;;96.53;37.33;;;-4.50;1.00;;;;;;5072855;28;20048;-78
2022/12/13 09:13:50;;;;;;;103.10;37.13;;;-4.40;1.00;;;;;;5088514;28;20040;-77
2022/12/13 09:16:18;;;;;;;105.40;38.08;;;-4.30;1.00;;;;;;5056007;28;20048;-78
2022/12/13 09:18:45;;;;;;;105.53;38.08;;;-4.20;1.00;;;;;;5081975;28;20054;-78
2022/12/13 09:21:13;;;;;;;106.90;39.00;;;-4.20;1.00;;;;;;5076048;28;20181;-78
2022/12/13 09:23:42;;;;;;;104.13;39.20;;;-4.10;1.00;;;;;;5083707;28;20039;-78
2022/12/13 09:26:10;;;;;;;101.85;37.38;;;-4.00;1.00;;;;;;5073094;28;20056;-78
2022/12/13 09:28:37;;;;;;;105.60;39.42;;;-4.00;1.00;;;;;;5070772;28;20048;-79
2022/12/13 09:31:08;;;;;;;97.18;37.53;;;-3.90;1.00;;;;;;5070445;28;20075;-78
2022/12/13 09:33:34;;;;;;;95.95;38.72;;;-3.90;1.00;;;;;;5088209;28;20074;-78
2022/12/13 09:36:04;;;;;;;105.78;39.50;;;-3.80;1.00;;;;;;5072236;28;20477;-78
2022/12/13 09:38:30;;;;;;;104.15;41.00;;;-3.70;1.00;;;;;;5078546;28;20052;-81
2022/12/13 09:40:58;;;;;;;111.50;41.30;;;-3.60;1.00;;;;;;5071070;28;20046;-78
2022/12/13 09:43:27;;;;;;;103.78;39.72;;;-3.50;1.00;;;;;;5088695;28;20427;-78
2022/12/13 09:45:53;;;;;;;106.85;40.63;;;-3.40;1.00;;;;;;5078250;28;20134;-78
2022/12/13 09:48:20;;;;;;;107.18;42.45;;;-3.30;1.00;;;;;;5071791;28;20122;-78
2022/12/13 09:50:47;;;;;;;101.25;40.70;;;-3.20;1.00;;;;;;5070265;28;20185;-78
2022/12/13 09:53:18;;;;;;;98.95;39.47;;;-3.20;1.00;;;;;;5081051;28;20164;-79
2022/12/13 09:55:46;;;;;;;103.88;40.67;;;-3.10;1.00;;;;;;5103298;28;20500;-79
2022/12/13 09:58:22;;;;;;;99.20;39.72;;;-2.90;1.80;;;;;;5092349;28;20043;-80
2022/12/13 10:00:49;;;;;;;;;;;-3.00;5.80;;;;;;5089307;28;20519;-79
2022/12/13 10:03:17;;;;;;;100.63;37.55;;;-2.90;11.80;;;;;;5091084;28;19927;-78
2022/12/13 10:05:59;;;;;;;104.00;40.30;;;-2.80;15.10;;;;;;5108552;28;20056;-79
2022/12/13 10:08:37;;;;;;;94.18;38.55;;;-2.70;19.50;;;;;;5108742;28;20039;-79
2022/12/13 10:11:02;;;;;;;100.25;39.80;;;-2.70;19.40;;;;;;5109045;28;20450;-79
2022/12/13 10:14:02;;;;;;;97.03;38.10;;;-2.60;21.80;;;;;;5108601;28;20039;-78
2022/12/13 10:16:34;;;;;;;95.30;37.80;;;-2.60;24.20;;;;;;5091749;28;20079;-81
2022/12/13 10:19:21;;;;;;;100.18;39.25;;;-2.50;27.80;;;;;;5100040;28;20048;-79
2022/12/13 10:21:47;;;;;;;90.82;38.50;;;-2.50;30.60;;;;;;5088514;28;20054;-79
2022/12/13 10:24:26;;;;;;;92.75;38.25;;;-2.40;35.70;;;;;;5091778;28;20060;-79
2022/12/13 10:26:52;;;;;;;87.25;38.00;;;-2.40;39.10;;;;;;5071190;28;20112;-80
2022/12/13 10:29:18;;;;;;;83.85;36.35;;;-2.30;42.80;;;;;;5081658;28;20047;-80
2022/12/13 10:31:50;;;;;;;94.32;39.20;;;-2.30;43.70;;;;;;5108001;28;20040;-78
2022/12/13 10:34:23;;;;;;;89.25;36.97;;;-2.30;46.80;;;;;;5108730;28;20525;-78
2022/12/13 10:36:49;;;;;;;90.97;38.15;;;-2.30;48.20;;;;;;5098204;28;20078;-79
2022/12/13 10:39:38;;;;;;;83.90;37.42;;;-2.20;49.60;;;;;;5091124;28;20051;-79
2022/12/13 10:42:16;;;;;;;90.78;37.83;;;-2.20;51.20;;;;;;5091174;28;20113;-78
2022/12/13 10:44:42;;;;;;;92.13;37.67;;;-2.20;52.00;;;;;;5085298;28;20056;-79
2022/12/13 10:47:20;;;;;;;89.82;38.38;;;-2.30;52.20;;;;;;5104160;28;20054;-78
2022/12/13 10:49:50;;;;;;;90.57;37.22;;;-2.30;52.30;;;;;;5098930;28;20435;-79
2022/12/13 10:52:45;;;;;;;93.05;39.45;;;-2.30;52.40;;;;;;5112061;28;20071;-79
2022/12/13 10:55:31;;;;;;;90.90;40.17;;;-2.20;51.40;;;;;;5088794;28;20091;-78
2022/12/13 10:58:05;;;;;;;90.20;37.28;;;-2.30;54.30;;;;;;5091056;28;20059;-79
2022/12/13 11:00:45;;;;;;;89.60;38.22;;;-2.20;55.00;;;;;;5091574;28;20047;-78
2022/12/13 11:03:31;;;;;;;88.85;38.92;;;-2.20;55.20;;;;;;5072231;28;20044;-78
2022/12/13 11:06:04;;;;;;;;;;;-2.30;54.80;;;;;;5082169;28;20131;-78
2022/12/13 11:08:30;;;;;;;84.88;36.75;;;-2.30;54.70;;;;;;5091949;28;19920;-78
2022/12/13 11:11:01;;;;;;;85.18;35.47;;;-2.30;56.90;;;;;;5091365;28;20776;-79
2022/12/13 11:13:37;;;;;;;88.28;38.83;;;-2.20;57.00;;;;;;5088643;28;20060;-79
2022/12/13 11:16:18;;;;;;;83.50;37.92;;;-2.20;59.50;;;;;;5084780;28;20052;-78
2022/12/13 11:18:51;;;;;;;88.07;37.45;;;-2.10;63.40;;;;;;5074523;28;20083;-81
2022/12/13 11:21:24;;;;;;;80.85;36.38;;;-2.10;64.90;;;;;;5091421;28;20043;-79
2022/12/13 11:23:50;;;;;;;86.47;37.50;;;-2.00;64.00;;;;;;5091031;28;20040;-78
2022/12/13 11:26:19;;;;;;;74.88;35.75;;;-2.00;63.90;;;;;;5071921;28;20048;-78
2022/12/13 11:29:11;;;;;;;80.85;36.25;;;-2.00;66.70;;;;;;5091595;28;20051;-81
2022/12/13 11:31:47;;;;;;;71.72;34.00;;;-1.90;67.70;;;;;;5055470;28;20075;-79
2022/12/13 11:34:21;;;;;;;70.85;33.17;;;-1.80;75.00;;;;;;5084324;28;20113;-79
2022/12/13 11:37:05;;;;;;;71.78;32.63;;;-1.80;76.70;;;;;;5074372;28;20064;-81
2022/12/13 11:39:36;;;;;;;76.80;35.17;;;-1.70;74.10;;;;;;5091152;28;20151;-78
2022/12/13 11:42:14;;;;;;;76.15;33.90;;;-1.70;72.60;;;;;;5074042;28;20093;-78
2022/12/13 11:44:49;;;;;;;66.32;32.38;;;-1.70;76.20;;;;;;5071381;28;20053;-79
2022/12/13 11:47:24;;;;;;;72.97;32.80;;;-1.70;76.40;;;;;;5086497;28;20052;-78
2022/12/13 11:49:51;;;;;;;68.25;32.45;;;-1.60;77.80;;;;;;5064522;28;20056;-81
2022/12/13 11:52:41;;;;;;;69.10;32.15;;;-1.60;75.50;;;;;;5054297;28;20041;-80
2022/12/13 11:55:26;;;;;;;69.40;32.55;;;-1.60;76.90;;;;;;5080847;28;20060;-79
2022/12/13 11:58:06;;;;;;;59.28;31.10;;;-1.50;76.60;;;;;;5111326;28;20055;-80
2022/12/13 12:00:40;;;;;;;62.65;30.40;;;-1.60;76.20;;;;;;5088922;28;20066;-79
2022/12/13 12:03:15;;;;;;;66.25;31.85;;;-1.50;75.10;;;;;;5103024;28;20067;-80
2022/12/13 12:05:49;;;;;;;65.18;31.65;;;-1.50;75.00;;;;;;5099434;28;20469;-79
2022/12/13 12:08:28;;;;;;;64.75;30.88;;;-1.50;74.70;;;;;;5093891;28;20139;-79
2022/12/13 12:11:34;;;;;;;58.90;30.58;;;-1.50;73.10;;;;;;5094093;28;20079;-79
2022/12/13 12:14:23;;;;;;;65.05;31.73;;;-1.50;70.60;;;;;;5090202;28;20104;-78
2022/12/13 12:16:56;;;;;;;64.05;31.33;;;-1.50;69.00;;;;;;5090351;28;20122;-79
2022/12/13 12:19:25;;;;;;;63.50;31.35;;;-1.50;67.60;;;;;;5111015;28;20059;-80
2022/12/13 12:22:09;;;;;;;61.83;31.30;;;-1.50;68.30;;;;;;5092480;28;20135;-79
2022/12/13 12:24:57;;;;;;;61.03;30.40;;;-1.40;66.50;;;;;;5110304;28;20040;-79
2022/12/13 12:27:39;;;;;;;64.30;30.05;;;-1.40;59.70;;;;;;5100525;28;20055;-80
2022/12/13 12:30:13;;;;;;;72.55;32.35;;;-1.40;58.20;;;;;;5112939;27;20047;-79
2022/12/13 12:33:10;;;;;;;69.57;32.47;;;-1.30;49.00;;;;;;5109929;28;21137;-79
2022/12/13 12:35:41;;;;;;;62.05;31.52;;;-1.30;48.10;;;;;;5092610;28;20043;-79
2022/12/13 12:38:25;;;;;;;68.90;34.35;;;-1.30;48.00;;;;;;5110538;28;20051;-79
2022/12/13 12:41:03;;;;;;;65.18;32.20;;;-1.40;49.20;;;;;;5093039;28;20043;-79
2022/12/13 12:43:36;;;;;;;63.05;32.05;;;-1.30;52.40;;;;;;5093065;28;20397;-79
2022/12/13 12:46:05;;;;;;;67.90;33.67;;;-1.40;53.60;;;;;;5073774;28;20058;-79
2022/12/13 12:48:31;;;;;;;68.07;32.75;;;-1.40;54.70;;;;;;5086948;28;20047;-81
2022/12/13 12:51:14;;;;;;;59.95;30.98;;;-1.40;56.40;;;;;;5097539;28;20059;-81
2022/12/13 12:54:06;;;;;;;61.72;31.23;;;-1.40;58.10;;;;;;5093412;28;20499;-79
2022/12/13 12:56:48;;;;;;;61.85;31.90;;;-1.30;57.30;;;;;;5110572;28;20512;-80
2022/12/13 12:59:22;;;;;;;61.75;31.30;;;-1.30;56.70;;;;;;5098804;28;20040;-79